sensor_id;sensor_type;location;lat;lon;timestamp;temperature;humidity
65378;SHT31;51982;51.042;13.806;2023-12-20T00:01:01;9.65;83.54
65378;SHT31;51982;51.042;13.806;2023-12-20T00:03:26;9.59;83.45
65378;SHT31;51982;51.042;13.806;2023-12-20T00:05:52;9.59;83.55
65378;SHT31;51982;51.042;13.806;2023-12-20T00:08:17;9.57;83.56
65378;SHT31;51982;51.042;13.806;2023-12-20T00:10:43;9.60;83.56
65378;SHT31;51982;51.042;13.806;2023-12-20T00:13:09;9.60;83.32
65378;SHT31;51982;51.042;13.806;2023-12-20T00:15:34;9.59;83.33
65378;SHT31;51982;51.042;13.806;2023-12-20T00:18:00;9.56;83.29
65378;SHT31;51982;51.042;13.806;2023-12-20T00:20:26;9.60;83.43
65378;SHT31;51982;51.042;13.806;2023-12-20T00:22:51;9.59;83.23
65378;SHT31;51982;51.042;13.806;2023-12-20T00:25:16;9.59;83.33
65378;SHT31;51982;51.042;13.806;2023-12-20T00:27:41;9.57;83.21
65378;SHT31;51982;51.042;13.806;2023-12-20T00:30:07;9.57;83.23
65378;SHT31;51982;51.042;13.806;2023-12-20T00:32:33;9.59;83.19
65378;SHT31;51982;51.042;13.806;2023-12-20T00:34:58;9.56;83.30
65378;SHT31;51982;51.042;13.806;2023-12-20T00:37:23;9.52;83.23
65378;SHT31;51982;51.042;13.806;2023-12-20T00:39:49;9.46;83.06
65378;SHT31;51982;51.042;13.806;2023-12-20T00:42:14;9.45;82.97
65378;SHT31;51982;51.042;13.806;2023-12-20T00:44:39;9.50;83.10
65378;SHT31;51982;51.042;13.806;2023-12-20T00:47:05;9.50;83.03
65378;SHT31;51982;51.042;13.806;2023-12-20T00:49:32;9.47;82.90
65378;SHT31;51982;51.042;13.806;2023-12-20T00:51:58;9.45;82.88
65378;SHT31;51982;51.042;13.806;2023-12-20T00:54:23;9.40;82.83
65378;SHT31;51982;51.042;13.806;2023-12-20T00:56:48;9.35;82.67
65378;SHT31;51982;51.042;13.806;2023-12-20T00:59:13;9.34;82.79
65378;SHT31;51982;51.042;13.806;2023-12-20T01:01:39;9.35;82.81
65378;SHT31;51982;51.042;13.806;2023-12-20T01:04:05;9.35;82.64
65378;SHT31;51982;51.042;13.806;2023-12-20T01:06:30;9.36;82.70
65378;SHT31;51982;51.042;13.806;2023-12-20T01:08:55;9.40;82.76
65378;SHT31;51982;51.042;13.806;2023-12-20T01:11:20;9.36;82.48
65378;SHT31;51982;51.042;13.806;2023-12-20T01:13:46;9.32;82.57
65378;SHT31;51982;51.042;13.806;2023-12-20T01:16:11;9.31;82.75
65378;SHT31;51982;51.042;13.806;2023-12-20T01:18:37;9.26;82.66
65378;SHT31;51982;51.042;13.806;2023-12-20T01:21:03;9.29;82.80
65378;SHT31;51982;51.042;13.806;2023-12-20T01:23:28;9.28;82.65
65378;SHT31;51982;51.042;13.806;2023-12-20T01:25:54;9.25;82.50
65378;SHT31;51982;51.042;13.806;2023-12-20T01:28:19;9.24;82.65
65378;SHT31;51982;51.042;13.806;2023-12-20T01:30:45;9.22;82.59
65378;SHT31;51982;51.042;13.806;2023-12-20T01:33:10;9.26;82.70
65378;SHT31;51982;51.042;13.806;2023-12-20T01:35:35;9.22;82.56
65378;SHT31;51982;51.042;13.806;2023-12-20T01:38:00;9.22;82.52
65378;SHT31;51982;51.042;13.806;2023-12-20T01:40:25;9.22;82.67
65378;SHT31;51982;51.042;13.806;2023-12-20T01:43:01;9.21;82.97
65378;SHT31;51982;51.042;13.806;2023-12-20T01:45:29;9.26;82.62
65378;SHT31;51982;51.042;13.806;2023-12-20T01:47:56;9.21;82.50
65378;SHT31;51982;51.042;13.806;2023-12-20T01:50:22;9.21;82.56
65378;SHT31;51982;51.042;13.806;2023-12-20T01:52:48;9.18;82.22
65378;SHT31;51982;51.042;13.806;2023-12-20T01:55:14;9.15;82.38
65378;SHT31;51982;51.042;13.806;2023-12-20T01:57:42;9.11;82.31
65378;SHT31;51982;51.042;13.806;2023-12-20T02:00:08;9.16;82.54
65378;SHT31;51982;51.042;13.806;2023-12-20T02:02:36;9.15;82.64
65378;SHT31;51982;51.042;13.806;2023-12-20T02:05:05;9.15;82.43
65378;SHT31;51982;51.042;13.806;2023-12-20T02:07:31;9.12;82.57
65378;SHT31;51982;51.042;13.806;2023-12-20T02:09:56;9.02;82.36
65378;SHT31;51982;51.042;13.806;2023-12-20T02:12:21;9.02;82.63
65378;SHT31;51982;51.042;13.806;2023-12-20T02:14:47;9.04;82.72
65378;SHT31;51982;51.042;13.806;2023-12-20T02:17:12;9.07;82.59
65378;SHT31;51982;51.042;13.806;2023-12-20T02:19:37;9.05;82.63
65378;SHT31;51982;51.042;13.806;2023-12-20T02:22:12;9.01;82.50
65378;SHT31;51982;51.042;13.806;2023-12-20T02:24:38;9.04;82.33
65378;SHT31;51982;51.042;13.806;2023-12-20T02:27:05;9.05;82.58
65378;SHT31;51982;51.042;13.806;2023-12-20T02:29:32;9.10;82.42
65378;SHT31;51982;51.042;13.806;2023-12-20T02:31:57;9.05;82.18
65378;SHT31;51982;51.042;13.806;2023-12-20T02:34:23;9.05;82.33
65378;SHT31;51982;51.042;13.806;2023-12-20T02:36:48;9.08;82.39
65378;SHT31;51982;51.042;13.806;2023-12-20T02:39:17;9.10;82.30
65378;SHT31;51982;51.042;13.806;2023-12-20T02:41:43;9.07;82.08
65378;SHT31;51982;51.042;13.806;2023-12-20T02:44:08;9.04;82.06
65378;SHT31;51982;51.042;13.806;2023-12-20T02:46:33;8.98;81.95
65378;SHT31;51982;51.042;13.806;2023-12-20T02:48:59;9.00;81.94
65378;SHT31;51982;51.042;13.806;2023-12-20T02:51:24;9.04;82.18
65378;SHT31;51982;51.042;13.806;2023-12-20T02:53:49;9.02;82.31
65378;SHT31;51982;51.042;13.806;2023-12-20T02:56:14;9.07;82.06
65378;SHT31;51982;51.042;13.806;2023-12-20T02:58:40;9.01;82.07
65378;SHT31;51982;51.042;13.806;2023-12-20T03:01:05;9.02;82.16
65378;SHT31;51982;51.042;13.806;2023-12-20T03:03:31;9.01;82.09
65378;SHT31;51982;51.042;13.806;2023-12-20T03:05:56;9.00;82.13
65378;SHT31;51982;51.042;13.806;2023-12-20T03:08:22;9.00;82.30
65378;SHT31;51982;51.042;13.806;2023-12-20T03:10:47;8.94;82.06
65378;SHT31;51982;51.042;13.806;2023-12-20T03:13:12;8.97;82.26
65378;SHT31;51982;51.042;13.806;2023-12-20T03:15:37;8.91;82.30
65378;SHT31;51982;51.042;13.806;2023-12-20T03:18:03;8.97;82.30
65378;SHT31;51982;51.042;13.806;2023-12-20T03:20:28;8.92;82.30
65378;SHT31;51982;51.042;13.806;2023-12-20T03:22:53;8.91;82.22
65378;SHT31;51982;51.042;13.806;2023-12-20T03:25:18;8.85;82.19
65378;SHT31;51982;51.042;13.806;2023-12-20T03:27:44;8.87;82.29
65378;SHT31;51982;51.042;13.806;2023-12-20T03:30:09;8.88;82.38
65378;SHT31;51982;51.042;13.806;2023-12-20T03:32:34;8.87;82.41
65378;SHT31;51982;51.042;13.806;2023-12-20T03:35:00;8.77;82.26
65378;SHT31;51982;51.042;13.806;2023-12-20T03:37:25;8.83;82.54
65378;SHT31;51982;51.042;13.806;2023-12-20T03:39:50;8.80;82.54
65378;SHT31;51982;51.042;13.806;2023-12-20T03:42:15;8.83;82.68
65378;SHT31;51982;51.042;13.806;2023-12-20T03:44:41;8.75;82.52
65378;SHT31;51982;51.042;13.806;2023-12-20T03:47:06;8.77;82.74
65378;SHT31;51982;51.042;13.806;2023-12-20T03:49:31;8.75;82.71
65378;SHT31;51982;51.042;13.806;2023-12-20T03:51:57;8.75;82.61
65378;SHT31;51982;51.042;13.806;2023-12-20T03:54:22;8.75;82.72
65378;SHT31;51982;51.042;13.806;2023-12-20T03:56:47;8.75;82.73
65378;SHT31;51982;51.042;13.806;2023-12-20T03:59:12;8.80;82.74
65378;SHT31;51982;51.042;13.806;2023-12-20T04:01:37;8.78;82.61
65378;SHT31;51982;51.042;13.806;2023-12-20T04:04:03;8.80;82.66
65378;SHT31;51982;51.042;13.806;2023-12-20T04:06:28;8.83;82.78
65378;SHT31;51982;51.042;13.806;2023-12-20T04:08:53;8.85;82.65
65378;SHT31;51982;51.042;13.806;2023-12-20T04:11:19;8.84;82.77
65378;SHT31;51982;51.042;13.806;2023-12-20T04:13:44;8.87;82.77
65378;SHT31;51982;51.042;13.806;2023-12-20T04:16:09;8.85;82.79
65378;SHT31;51982;51.042;13.806;2023-12-20T04:18:34;8.94;82.99
65378;SHT31;51982;51.042;13.806;2023-12-20T04:21:00;8.88;82.79
65378;SHT31;51982;51.042;13.806;2023-12-20T04:23:25;8.83;83.02
65378;SHT31;51982;51.042;13.806;2023-12-20T04:25:50;8.80;82.86
65378;SHT31;51982;51.042;13.806;2023-12-20T04:28:15;8.77;82.99
65378;SHT31;51982;51.042;13.806;2023-12-20T04:30:41;8.75;83.16
65378;SHT31;51982;51.042;13.806;2023-12-20T04:33:07;8.81;83.30
65378;SHT31;51982;51.042;13.806;2023-12-20T04:35:32;8.84;83.43
65378;SHT31;51982;51.042;13.806;2023-12-20T04:37:57;8.80;83.49
65378;SHT31;51982;51.042;13.806;2023-12-20T04:40:22;8.85;83.40
65378;SHT31;51982;51.042;13.806;2023-12-20T04:42:48;8.84;83.22
65378;SHT31;51982;51.042;13.806;2023-12-20T04:45:13;8.87;83.18
65378;SHT31;51982;51.042;13.806;2023-12-20T04:47:41;8.89;83.26
65378;SHT31;51982;51.042;13.806;2023-12-20T04:50:07;8.85;83.26
65378;SHT31;51982;51.042;13.806;2023-12-20T04:52:33;8.88;83.38
65378;SHT31;51982;51.042;13.806;2023-12-20T04:54:58;8.88;83.47
65378;SHT31;51982;51.042;13.806;2023-12-20T04:57:24;8.88;83.39
65378;SHT31;51982;51.042;13.806;2023-12-20T04:59:49;8.87;83.42
65378;SHT31;51982;51.042;13.806;2023-12-20T05:02:15;8.89;83.59
65378;SHT31;51982;51.042;13.806;2023-12-20T05:04:40;8.85;83.72
65378;SHT31;51982;51.042;13.806;2023-12-20T05:07:06;8.80;83.72
65378;SHT31;51982;51.042;13.806;2023-12-20T05:09:31;8.81;83.86
65378;SHT31;51982;51.042;13.806;2023-12-20T05:11:56;8.81;83.92
65378;SHT31;51982;51.042;13.806;2023-12-20T05:14:22;8.75;83.94
65378;SHT31;51982;51.042;13.806;2023-12-20T05:16:47;8.74;84.18
65378;SHT31;51982;51.042;13.806;2023-12-20T05:19:12;8.78;84.28
65378;SHT31;51982;51.042;13.806;2023-12-20T05:21:37;8.71;83.92
65378;SHT31;51982;51.042;13.806;2023-12-20T05:24:03;8.71;83.97
65378;SHT31;51982;51.042;13.806;2023-12-20T05:26:28;8.74;84.21
65378;SHT31;51982;51.042;13.806;2023-12-20T05:28:54;8.68;84.24
65378;SHT31;51982;51.042;13.806;2023-12-20T05:31:19;8.70;84.26
65378;SHT31;51982;51.042;13.806;2023-12-20T05:33:45;8.67;84.13
65378;SHT31;51982;51.042;13.806;2023-12-20T05:36:10;8.71;84.21
65378;SHT31;51982;51.042;13.806;2023-12-20T05:38:36;8.74;84.14
65378;SHT31;51982;51.042;13.806;2023-12-20T05:41:02;8.71;84.21
65378;SHT31;51982;51.042;13.806;2023-12-20T05:43:27;8.71;84.04
65378;SHT31;51982;51.042;13.806;2023-12-20T05:45:52;8.68;83.90
65378;SHT31;51982;51.042;13.806;2023-12-20T05:48:17;8.71;84.13
65378;SHT31;51982;51.042;13.806;2023-12-20T05:50:43;8.74;84.08
65378;SHT31;51982;51.042;13.806;2023-12-20T05:53:08;8.77;83.97
65378;SHT31;51982;51.042;13.806;2023-12-20T05:55:33;8.65;83.85
65378;SHT31;51982;51.042;13.806;2023-12-20T05:57:59;8.74;84.09
65378;SHT31;51982;51.042;13.806;2023-12-20T06:00:24;8.71;84.05
65378;SHT31;51982;51.042;13.806;2023-12-20T06:02:50;8.74;84.06
65378;SHT31;51982;51.042;13.806;2023-12-20T06:05:15;8.73;84.12
65378;SHT31;51982;51.042;13.806;2023-12-20T06:07:40;8.74;84.01
65378;SHT31;51982;51.042;13.806;2023-12-20T06:10:06;8.77;84.08
65378;SHT31;51982;51.042;13.806;2023-12-20T06:12:31;8.78;84.15
65378;SHT31;51982;51.042;13.806;2023-12-20T06:14:58;8.81;84.13
65378;SHT31;51982;51.042;13.806;2023-12-20T06:17:23;8.81;84.19
65378;SHT31;51982;51.042;13.806;2023-12-20T06:19:49;8.84;84.10
65378;SHT31;51982;51.042;13.806;2023-12-20T06:22:15;8.87;84.01
65378;SHT31;51982;51.042;13.806;2023-12-20T06:24:40;8.87;84.03
65378;SHT31;51982;51.042;13.806;2023-12-20T06:27:05;8.88;84.04
65378;SHT31;51982;51.042;13.806;2023-12-20T06:29:30;8.92;83.94
65378;SHT31;51982;51.042;13.806;2023-12-20T06:31:56;8.88;83.86
65378;SHT31;51982;51.042;13.806;2023-12-20T06:34:21;8.91;83.86
65378;SHT31;51982;51.042;13.806;2023-12-20T06:36:46;8.88;83.70
65378;SHT31;51982;51.042;13.806;2023-12-20T06:39:11;8.87;83.65
65378;SHT31;51982;51.042;13.806;2023-12-20T06:41:38;8.88;83.71
65378;SHT31;51982;51.042;13.806;2023-12-20T06:44:03;8.84;83.62
65378;SHT31;51982;51.042;13.806;2023-12-20T06:46:28;8.83;83.77
65378;SHT31;51982;51.042;13.806;2023-12-20T06:48:53;8.84;83.93
65378;SHT31;51982;51.042;13.806;2023-12-20T06:51:18;8.84;84.38
65378;SHT31;51982;51.042;13.806;2023-12-20T06:53:45;8.80;84.48
65378;SHT31;51982;51.042;13.806;2023-12-20T06:56:10;8.83;84.49
65378;SHT31;51982;51.042;13.806;2023-12-20T06:58:37;8.78;84.60
65378;SHT31;51982;51.042;13.806;2023-12-20T07:01:02;8.70;84.74
65378;SHT31;51982;51.042;13.806;2023-12-20T07:03:31;8.71;84.80
65378;SHT31;51982;51.042;13.806;2023-12-20T07:13:00;8.65;84.58
65378;SHT31;51982;51.042;13.806;2023-12-20T07:18:48;8.77;84.53
65378;SHT31;51982;51.042;13.806;2023-12-20T07:21:37;8.77;84.48
65378;SHT31;51982;51.042;13.806;2023-12-20T07:30:15;8.77;84.02
65378;SHT31;51982;51.042;13.806;2023-12-20T07:32:55;8.85;84.03
65378;SHT31;51982;51.042;13.806;2023-12-20T07:38:57;8.78;83.86
65378;SHT31;51982;51.042;13.806;2023-12-20T07:41:40;8.84;84.00
65378;SHT31;51982;51.042;13.806;2023-12-20T07:48:11;8.83;83.74
65378;SHT31;51982;51.042;13.806;2023-12-20T07:55:09;8.87;83.72
65378;SHT31;51982;51.042;13.806;2023-12-20T08:10:38;8.56;83.48
65378;SHT31;51982;51.042;13.806;2023-12-20T08:13:31;8.51;83.74
65378;SHT31;51982;51.042;13.806;2023-12-20T08:39:16;9.19;82.27
65378;SHT31;51982;51.042;13.806;2023-12-20T08:47:59;9.47;81.44
65378;SHT31;51982;51.042;13.806;2023-12-20T08:51:03;9.52;81.28
65378;SHT31;51982;51.042;13.806;2023-12-20T08:54:05;9.55;80.89
65378;SHT31;51982;51.042;13.806;2023-12-20T08:57:37;9.47;80.86
65378;SHT31;51982;51.042;13.806;2023-12-20T09:16:53;9.57;79.03
65378;SHT31;51982;51.042;13.806;2023-12-20T09:19:20;9.72;78.20
65378;SHT31;51982;51.042;13.806;2023-12-20T09:21:46;9.79;78.69
65378;SHT31;51982;51.042;13.806;2023-12-20T09:24:11;9.83;77.65
65378;SHT31;51982;51.042;13.806;2023-12-20T09:26:36;9.85;78.28
65378;SHT31;51982;51.042;13.806;2023-12-20T09:29:01;9.86;77.90
65378;SHT31;51982;51.042;13.806;2023-12-20T09:31:27;9.85;77.78
65378;SHT31;51982;51.042;13.806;2023-12-20T09:33:52;9.87;78.16
65378;SHT31;51982;51.042;13.806;2023-12-20T09:36:17;9.91;78.39
65378;SHT31;51982;51.042;13.806;2023-12-20T09:38:42;9.91;78.33
65378;SHT31;51982;51.042;13.806;2023-12-20T09:41:07;9.93;78.11
65378;SHT31;51982;51.042;13.806;2023-12-20T09:43:35;10.08;78.01
65378;SHT31;51982;51.042;13.806;2023-12-20T09:46:05;10.17;78.13
65378;SHT31;51982;51.042;13.806;2023-12-20T09:48:31;9.98;78.13
65378;SHT31;51982;51.042;13.806;2023-12-20T09:50:56;10.01;78.14
65378;SHT31;51982;51.042;13.806;2023-12-20T09:53:22;10.08;78.81
65378;SHT31;51982;51.042;13.806;2023-12-20T09:55:54;10.36;77.67
65378;SHT31;51982;51.042;13.806;2023-12-20T09:58:20;10.55;76.93
65378;SHT31;51982;51.042;13.806;2023-12-20T10:00:46;10.75;77.14
65378;SHT31;51982;51.042;13.806;2023-12-20T10:03:13;10.86;76.57
65378;SHT31;51982;51.042;13.806;2023-12-20T10:05:43;11.47;75.95
65378;SHT31;51982;51.042;13.806;2023-12-20T10:08:09;11.33;75.93
65378;SHT31;51982;51.042;13.806;2023-12-20T10:10:34;11.22;75.70
65378;SHT31;51982;51.042;13.806;2023-12-20T10:13:03;11.19;76.31
65378;SHT31;51982;51.042;13.806;2023-12-20T10:15:29;11.13;75.99
65378;SHT31;51982;51.042;13.806;2023-12-20T10:17:54;11.12;76.10
65378;SHT31;51982;51.042;13.806;2023-12-20T10:20:20;11.37;75.46
65378;SHT31;51982;51.042;13.806;2023-12-20T10:22:46;11.29;75.04
65378;SHT31;51982;51.042;13.806;2023-12-20T10:25:11;11.18;75.30
65378;SHT31;51982;51.042;13.806;2023-12-20T10:27:39;11.16;75.85
65378;SHT31;51982;51.042;13.806;2023-12-20T10:30:05;11.20;75.31
65378;SHT31;51982;51.042;13.806;2023-12-20T10:32:30;11.57;74.35
65378;SHT31;51982;51.042;13.806;2023-12-20T10:34:56;11.44;74.46
65378;SHT31;51982;51.042;13.806;2023-12-20T10:37:22;11.29;74.39
65378;SHT31;51982;51.042;13.806;2023-12-20T10:39:52;11.23;75.09
65378;SHT31;51982;51.042;13.806;2023-12-20T10:42:26;11.26;74.37
65378;SHT31;51982;51.042;13.806;2023-12-20T10:44:52;11.27;74.31
65378;SHT31;51982;51.042;13.806;2023-12-20T10:47:19;11.24;75.02
65378;SHT31;51982;51.042;13.806;2023-12-20T10:49:45;11.18;74.53
65378;SHT31;51982;51.042;13.806;2023-12-20T10:52:11;11.10;74.65
65378;SHT31;51982;51.042;13.806;2023-12-20T10:54:37;11.09;73.88
65378;SHT31;51982;51.042;13.806;2023-12-20T10:57:05;11.18;74.04
65378;SHT31;51982;51.042;13.806;2023-12-20T10:59:33;11.20;73.93
65378;SHT31;51982;51.042;13.806;2023-12-20T11:01:59;11.15;74.25
65378;SHT31;51982;51.042;13.806;2023-12-20T11:04:31;11.16;73.77
65378;SHT31;51982;51.042;13.806;2023-12-20T11:07:19;11.13;73.66
65378;SHT31;51982;51.042;13.806;2023-12-20T11:09:58;11.15;73.59
65378;SHT31;51982;51.042;13.806;2023-12-20T11:13:04;11.00;73.25
65378;SHT31;51982;51.042;13.806;2023-12-20T11:15:34;11.03;73.19
65378;SHT31;51982;51.042;13.806;2023-12-20T11:18:00;11.09;73.22
65378;SHT31;51982;51.042;13.806;2023-12-20T11:20:36;11.03;73.10
65378;SHT31;51982;51.042;13.806;2023-12-20T11:23:02;11.00;72.66
65378;SHT31;51982;51.042;13.806;2023-12-20T11:25:27;11.05;72.72
65378;SHT31;51982;51.042;13.806;2023-12-20T11:28:11;11.00;72.42
65378;SHT31;51982;51.042;13.806;2023-12-20T11:30:47;10.88;73.39
65378;SHT31;51982;51.042;13.806;2023-12-20T11:33:15;10.91;72.51
65378;SHT31;51982;51.042;13.806;2023-12-20T11:35:41;10.81;73.48
65378;SHT31;51982;51.042;13.806;2023-12-20T11:38:10;10.69;73.17
65378;SHT31;51982;51.042;13.806;2023-12-20T11:40:35;10.72;73.18
65378;SHT31;51982;51.042;13.806;2023-12-20T11:43:02;10.72;73.00
65378;SHT31;51982;51.042;13.806;2023-12-20T11:45:27;10.67;73.08
65378;SHT31;51982;51.042;13.806;2023-12-20T11:47:53;10.64;72.82
65378;SHT31;51982;51.042;13.806;2023-12-20T11:50:22;10.64;73.62
65378;SHT31;51982;51.042;13.806;2023-12-20T11:52:49;10.67;73.50
65378;SHT31;51982;51.042;13.806;2023-12-20T11:55:14;10.67;73.01
65378;SHT31;51982;51.042;13.806;2023-12-20T11:57:39;10.71;72.68
65378;SHT31;51982;51.042;13.806;2023-12-20T12:00:06;10.68;73.06
65378;SHT31;51982;51.042;13.806;2023-12-20T12:02:31;10.55;72.96
65378;SHT31;51982;51.042;13.806;2023-12-20T12:04:57;10.51;73.15
65378;SHT31;51982;51.042;13.806;2023-12-20T12:07:24;10.52;73.05
65378;SHT31;51982;51.042;13.806;2023-12-20T12:09:49;10.45;72.71
65378;SHT31;51982;51.042;13.806;2023-12-20T12:12:14;10.48;72.67
65378;SHT31;51982;51.042;13.806;2023-12-20T12:14:40;10.49;73.65
65378;SHT31;51982;51.042;13.806;2023-12-20T12:17:13;10.48;73.12
65378;SHT31;51982;51.042;13.806;2023-12-20T12:19:39;10.65;73.11
65378;SHT31;51982;51.042;13.806;2023-12-20T12:22:05;10.67;73.14
65378;SHT31;51982;51.042;13.806;2023-12-20T12:24:37;10.65;72.86
65378;SHT31;51982;51.042;13.806;2023-12-20T12:27:05;10.62;72.87
65378;SHT31;51982;51.042;13.806;2023-12-20T12:29:30;10.58;73.08
65378;SHT31;51982;51.042;13.806;2023-12-20T12:31:55;10.52;73.72
65378;SHT31;51982;51.042;13.806;2023-12-20T12:34:21;10.51;73.08
65378;SHT31;51982;51.042;13.806;2023-12-20T12:36:46;10.61;72.57
65378;SHT31;51982;51.042;13.806;2023-12-20T12:39:13;10.73;72.81
65378;SHT31;51982;51.042;13.806;2023-12-20T12:41:40;10.86;72.28
65378;SHT31;51982;51.042;13.806;2023-12-20T12:44:05;10.98;72.05
65378;SHT31;51982;51.042;13.806;2023-12-20T12:46:31;11.05;71.54
65378;SHT31;51982;51.042;13.806;2023-12-20T12:48:56;11.09;72.31
65378;SHT31;51982;51.042;13.806;2023-12-20T12:51:21;11.09;72.68
65378;SHT31;51982;51.042;13.806;2023-12-20T12:53:46;11.13;72.06
65378;SHT31;51982;51.042;13.806;2023-12-20T12:56:13;11.10;71.47
65378;SHT31;51982;51.042;13.806;2023-12-20T12:58:38;11.10;71.49
65378;SHT31;51982;51.042;13.806;2023-12-20T13:01:04;11.15;71.18
65378;SHT31;51982;51.042;13.806;2023-12-20T13:03:29;11.12;71.38
65378;SHT31;51982;51.042;13.806;2023-12-20T13:05:54;11.12;71.14
65378;SHT31;51982;51.042;13.806;2023-12-20T13:08:20;11.13;71.06
65378;SHT31;51982;51.042;13.806;2023-12-20T13:10:45;11.12;71.45
65378;SHT31;51982;51.042;13.806;2023-12-20T13:13:10;11.16;71.32
65378;SHT31;51982;51.042;13.806;2023-12-20T13:15:36;11.19;71.37
65378;SHT31;51982;51.042;13.806;2023-12-20T13:18:01;11.18;71.39
65378;SHT31;51982;51.042;13.806;2023-12-20T13:20:26;11.16;71.42
65378;SHT31;51982;51.042;13.806;2023-12-20T13:22:51;11.13;71.77
65378;SHT31;51982;51.042;13.806;2023-12-20T13:25:17;11.13;71.36
65378;SHT31;51982;51.042;13.806;2023-12-20T13:27:42;11.12;71.43
65378;SHT31;51982;51.042;13.806;2023-12-20T13:30:07;11.22;71.34
65378;SHT31;51982;51.042;13.806;2023-12-20T13:32:33;11.23;71.39
65378;SHT31;51982;51.042;13.806;2023-12-20T13:34:58;11.22;71.63
65378;SHT31;51982;51.042;13.806;2023-12-20T13:37:23;11.22;71.02
65378;SHT31;51982;51.042;13.806;2023-12-20T13:39:48;11.18;71.26
65378;SHT31;51982;51.042;13.806;2023-12-20T13:42:14;11.13;71.41
65378;SHT31;51982;51.042;13.806;2023-12-20T13:44:39;11.13;71.23
65378;SHT31;51982;51.042;13.806;2023-12-20T13:47:05;11.05;71.13
65378;SHT31;51982;51.042;13.806;2023-12-20T13:49:31;11.08;71.14
65378;SHT31;51982;51.042;13.806;2023-12-20T13:51:56;11.10;71.24
65378;SHT31;51982;51.042;13.806;2023-12-20T13:54:22;11.10;71.36
65378;SHT31;51982;51.042;13.806;2023-12-20T13:56:47;11.08;71.35
65378;SHT31;51982;51.042;13.806;2023-12-20T13:59:14;11.00;71.59
65378;SHT31;51982;51.042;13.806;2023-12-20T14:01:40;10.96;71.46
65378;SHT31;51982;51.042;13.806;2023-12-20T14:04:05;10.92;71.29
65378;SHT31;51982;51.042;13.806;2023-12-20T14:06:32;10.91;71.42
65378;SHT31;51982;51.042;13.806;2023-12-20T14:08:57;10.88;71.82
65378;SHT31;51982;51.042;13.806;2023-12-20T14:11:25;10.83;71.64
65378;SHT31;51982;51.042;13.806;2023-12-20T14:13:50;10.78;71.49
65378;SHT31;51982;51.042;13.806;2023-12-20T14:16:15;10.85;71.84
65378;SHT31;51982;51.042;13.806;2023-12-20T14:18:41;10.79;71.24
65378;SHT31;51982;51.042;13.806;2023-12-20T14:21:07;10.78;71.67
65378;SHT31;51982;51.042;13.806;2023-12-20T14:23:32;10.81;71.56
65378;SHT31;51982;51.042;13.806;2023-12-20T14:25:58;10.79;71.68
65378;SHT31;51982;51.042;13.806;2023-12-20T14:28:24;10.72;71.73
65378;SHT31;51982;51.042;13.806;2023-12-20T14:30:49;10.72;71.67
65378;SHT31;51982;51.042;13.806;2023-12-20T14:33:15;10.59;71.65
65378;SHT31;51982;51.042;13.806;2023-12-20T14:35:40;10.52;71.73
65378;SHT31;51982;51.042;13.806;2023-12-20T14:38:07;10.52;72.09
65378;SHT31;51982;51.042;13.806;2023-12-20T14:40:33;10.51;71.93
65378;SHT31;51982;51.042;13.806;2023-12-20T14:42:58;10.51;71.83
65378;SHT31;51982;51.042;13.806;2023-12-20T14:45:24;10.52;72.02
65378;SHT31;51982;51.042;13.806;2023-12-20T14:47:49;10.49;72.17
65378;SHT31;51982;51.042;13.806;2023-12-20T14:50:14;10.51;72.74
65378;SHT31;51982;51.042;13.806;2023-12-20T14:52:43;10.47;71.77
65378;SHT31;51982;51.042;13.806;2023-12-20T14:55:10;10.42;71.93
65378;SHT31;51982;51.042;13.806;2023-12-20T14:57:35;10.44;71.87
65378;SHT31;51982;51.042;13.806;2023-12-20T15:00:00;10.40;71.91
65378;SHT31;51982;51.042;13.806;2023-12-20T15:02:26;10.38;71.92
65378;SHT31;51982;51.042;13.806;2023-12-20T15:04:51;10.34;72.10
65378;SHT31;51982;51.042;13.806;2023-12-20T15:07:16;10.34;72.36
65378;SHT31;51982;51.042;13.806;2023-12-20T15:09:42;10.37;72.52
65378;SHT31;51982;51.042;13.806;2023-12-20T15:12:11;10.36;72.26
65378;SHT31;51982;51.042;13.806;2023-12-20T15:14:36;10.34;72.52
65378;SHT31;51982;51.042;13.806;2023-12-20T15:17:01;10.31;72.73
65378;SHT31;51982;51.042;13.806;2023-12-20T15:19:26;10.30;72.98
65378;SHT31;51982;51.042;13.806;2023-12-20T15:21:51;10.34;72.60
65378;SHT31;51982;51.042;13.806;2023-12-20T15:24:17;10.33;72.43
65378;SHT31;51982;51.042;13.806;2023-12-20T15:26:45;10.25;72.85
65378;SHT31;51982;51.042;13.806;2023-12-20T15:29:11;10.27;72.48
65378;SHT31;51982;51.042;13.806;2023-12-20T15:31:45;10.25;72.60
65378;SHT31;51982;51.042;13.806;2023-12-20T15:34:11;10.30;72.86
65378;SHT31;51982;51.042;13.806;2023-12-20T15:36:36;10.25;72.67
65378;SHT31;51982;51.042;13.806;2023-12-20T15:39:02;10.27;72.74
65378;SHT31;51982;51.042;13.806;2023-12-20T15:41:28;10.25;72.94
65378;SHT31;51982;51.042;13.806;2023-12-20T15:43:54;10.22;72.81
65378;SHT31;51982;51.042;13.806;2023-12-20T15:46:20;10.25;73.90
65378;SHT31;51982;51.042;13.806;2023-12-20T15:48:46;10.20;73.32
65378;SHT31;51982;51.042;13.806;2023-12-20T15:51:11;10.22;72.96
65378;SHT31;51982;51.042;13.806;2023-12-20T15:53:36;10.22;72.99
65378;SHT31;51982;51.042;13.806;2023-12-20T15:56:03;10.18;73.27
65378;SHT31;51982;51.042;13.806;2023-12-20T15:58:31;10.18;73.13
65378;SHT31;51982;51.042;13.806;2023-12-20T16:00:56;10.20;73.25
65378;SHT31;51982;51.042;13.806;2023-12-20T16:03:21;10.22;73.10
65378;SHT31;51982;51.042;13.806;2023-12-20T16:05:47;10.22;73.92
65378;SHT31;51982;51.042;13.806;2023-12-20T16:08:12;10.21;73.59
65378;SHT31;51982;51.042;13.806;2023-12-20T16:10:37;10.18;73.55
65378;SHT31;51982;51.042;13.806;2023-12-20T16:13:03;10.18;73.12
65378;SHT31;51982;51.042;13.806;2023-12-20T16:15:29;10.14;74.31
65378;SHT31;51982;51.042;13.806;2023-12-20T16:17:54;10.17;73.93
65378;SHT31;51982;51.042;13.806;2023-12-20T16:20:19;10.17;73.76
65378;SHT31;51982;51.042;13.806;2023-12-20T16:22:44;10.16;73.58
65378;SHT31;51982;51.042;13.806;2023-12-20T16:25:10;10.14;75.05
65378;SHT31;51982;51.042;13.806;2023-12-20T16:27:39;10.16;73.85
65378;SHT31;51982;51.042;13.806;2023-12-20T16:30:05;10.14;73.64
65378;SHT31;51982;51.042;13.806;2023-12-20T16:32:31;10.14;74.21
65378;SHT31;51982;51.042;13.806;2023-12-20T16:34:56;10.10;73.66
65378;SHT31;51982;51.042;13.806;2023-12-20T16:37:22;10.30;79.27
65378;SHT31;51982;51.042;13.806;2023-12-20T16:39:47;10.22;74.35
65378;SHT31;51982;51.042;13.806;2023-12-20T16:42:12;10.17;74.30
65378;SHT31;51982;51.042;13.806;2023-12-20T16:44:38;10.16;74.04
65378;SHT31;51982;51.042;13.806;2023-12-20T16:47:03;10.16;74.06
65378;SHT31;51982;51.042;13.806;2023-12-20T16:49:28;10.16;74.32